Time;durP1;ratioP1;P1;durP2;ratioP2;P2;SDS_P1;SDS_P2;PMS_P1;PMS_P2;Temp;Humidity;BMP_temperature;BMP_pressure;BME280_temperature;BME280_humidity;BME280_pressure;Samples;Min_cycle;Max_cycle;Signal;HPM_P1;HPM_P2
2021/10/12 00:00:01;;;;;;;26.00;14.10;;;;;;;;;;5014386;28;20100;-82
2021/10/12 00:02:28;;;;;;;27.35;15.00;;;;;;;;;;5013991;28;20060;-84
2021/10/12 00:04:55;;;;;;;23.75;14.02;;;;;;;;;;5014423;28;20046;-83
2021/10/12 00:07:23;;;;;;;25.42;13.25;;;;;;;;;;5017279;28;20046;-83
2021/10/12 00:09:50;;;;;;;28.88;14.48;;;;;;;;;;5018374;28;20041;-83
2021/10/12 00:12:16;;;;;;;26.30;14.88;;;;;;;;;;5001257;28;20423;-82
2021/10/12 00:14:43;;;;;;;29.75;15.43;;;;;;;;;;5000903;28;20060;-83
2021/10/12 00:17:10;;;;;;;30.30;14.93;;;;;;;;;;5018589;28;20834;-83
2021/10/12 00:19:36;;;;;;;31.23;14.45;;;;;;;;;;5018557;28;20497;-82
2021/10/12 00:22:03;;;;;;;25.48;14.52;;;;;;;;;;5017966;28;20451;-82
2021/10/12 00:24:32;;;;;;;35.00;16.90;;;;;;;;;;5018532;28;20042;-84
2021/10/12 00:26:58;;;;;;;25.00;14.70;;;;;;;;;;5018131;28;20570;-82
2021/10/12 00:29:25;;;;;;;30.80;14.85;;;;;;;;;;5001143;28;20077;-83
2021/10/12 00:31:51;;;;;;;27.05;13.57;;;;;;;;;;5018566;28;20509;-84
2021/10/12 00:34:18;;;;;;;26.73;14.07;;;;;;;;;;5017883;28;20041;-82
2021/10/12 00:36:45;;;;;;;33.97;16.55;;;;;;;;;;5018287;28;20121;-83
2021/10/12 00:39:12;;;;;;;34.10;17.13;;;;;;;;;;5018916;28;20042;-82
2021/10/12 00:41:40;;;;;;;28.17;14.50;;;;;;;;;;5018347;28;20501;-83
2021/10/12 00:44:07;;;;;;;30.67;16.00;;;;;;;;;;5018887;28;20044;-82
2021/10/12 00:46:34;;;;;;;34.55;17.08;;;;;;;;;;5017847;28;20368;-83
2021/10/12 00:49:00;;;;;;;26.77;14.13;;;;;;;;;;5017804;28;20524;-83
2021/10/12 00:51:27;;;;;;;35.42;17.92;;;;;;;;;;5017936;28;20041;-82
2021/10/12 00:53:54;;;;;;;31.08;15.07;;;;;;;;;;5018771;28;20057;-82
2021/10/12 00:56:21;;;;;;;37.75;16.52;;;;;;;;;;5019053;28;20104;-83
2021/10/12 00:58:49;;;;;;;32.42;16.67;;;;;;;;;;5018488;28;20367;-83
2021/10/12 01:01:16;;;;;;;34.22;15.93;;;;;;;;;;5018131;28;20041;-82
2021/10/12 01:03:42;;;;;;;31.13;15.82;;;;;;;;;;5037164;23;20041;-73
2021/10/12 01:06:09;;;;;;;27.77;14.27;;;;;;;;;;5032733;28;20037;-73
2021/10/12 01:08:36;;;;;;;27.48;14.60;;;;;;;;;;5032377;28;20534;-73
2021/10/12 01:11:02;;;;;;;24.52;13.57;;;;;;;;;;5033973;28;20495;-73
2021/10/12 01:13:28;;;;;;;32.97;15.90;;;;;;;;;;5033995;28;20061;-73
2021/10/12 01:15:56;;;;;;;31.33;14.95;;;;;;;;;;5034497;28;20061;-74
2021/10/12 01:18:23;;;;;;;28.17;14.65;;;;;;;;;;5033818;28;20423;-72
2021/10/12 01:20:52;;;;;;;28.73;14.23;;;;;;;;;;5034076;28;20053;-72
2021/10/12 01:23:19;;;;;;;25.20;15.82;;;;;;;;;;5033416;28;20049;-73
2021/10/12 01:25:51;;;;;;;25.67;13.98;;;;;;;;;;5034194;28;20057;-73
2021/10/12 01:28:18;;;;;;;26.02;12.90;;;;;;;;;;5034726;28;20049;-73
2021/10/12 01:30:44;;;;;;;31.30;15.50;;;;;;;;;;5033663;28;20050;-73
2021/10/12 01:33:11;;;;;;;29.00;15.50;;;;;;;;;;5033592;28;20053;-72
2021/10/12 01:35:38;;;;;;;28.70;14.50;;;;;;;;;;5033037;28;20049;-73
2021/10/12 01:38:06;;;;;;;21.23;12.10;;;;;;;;;;5033114;28;20049;-73
2021/10/12 01:40:33;;;;;;;27.70;14.02;;;;;;;;;;5033600;28;20049;-72
2021/10/12 01:42:59;;;;;;;30.48;14.35;;;;;;;;;;5027688;28;20049;-73
2021/10/12 01:45:27;;;;;;;27.30;13.02;;;;;;;;;;5034034;28;20041;-72
2021/10/12 01:47:54;;;;;;;31.65;14.95;;;;;;;;;;5033864;28;20076;-72
2021/10/12 01:50:20;;;;;;;34.22;15.75;;;;;;;;;;5033085;28;20425;-73
2021/10/12 01:52:47;;;;;;;33.45;16.08;;;;;;;;;;5032650;28;20065;-73
2021/10/12 01:55:15;;;;;;;28.83;15.20;;;;;;;;;;5034077;28;20050;-73
2021/10/12 01:57:41;;;;;;;32.72;16.20;;;;;;;;;;5033217;28;20042;-73
2021/10/12 02:00:09;;;;;;;31.23;15.57;;;;;;;;;;5033113;28;20045;-74
2021/10/12 02:02:35;;;;;;;29.05;14.10;;;;;;;;;;5031996;28;20054;-73
2021/10/12 02:05:02;;;;;;;30.58;16.13;;;;;;;;;;5031774;28;20132;-73
2021/10/12 02:07:28;;;;;;;28.75;15.30;;;;;;;;;;5033584;28;20057;-73
2021/10/12 02:09:55;;;;;;;30.85;15.60;;;;;;;;;;5034056;28;20050;-74
2021/10/12 02:12:23;;;;;;;30.85;14.38;;;;;;;;;;5033772;28;20045;-73
2021/10/12 02:14:49;;;;;;;26.77;13.35;;;;;;;;;;5032707;28;20050;-73
2021/10/12 02:17:16;;;;;;;28.85;15.70;;;;;;;;;;5033185;28;20649;-73
2021/10/12 02:19:43;;;;;;;25.17;13.63;;;;;;;;;;5033263;28;20500;-72
2021/10/12 02:22:09;;;;;;;24.45;13.35;;;;;;;;;;5032333;28;20053;-73
2021/10/12 02:24:36;;;;;;;32.22;16.45;;;;;;;;;;5033125;28;20726;-73
2021/10/12 02:27:10;;;;;;;32.33;16.23;;;;;;;;;;5033427;28;20055;-73
2021/10/12 02:29:38;;;;;;;29.65;14.57;;;;;;;;;;5031906;28;20056;-73
2021/10/12 02:32:05;;;;;;;31.42;15.32;;;;;;;;;;5033023;28;20064;-74
2021/10/12 02:34:32;;;;;;;29.10;15.43;;;;;;;;;;5032964;28;20476;-73
2021/10/12 02:36:58;;;;;;;30.15;14.57;;;;;;;;;;5032870;28;20045;-73
2021/10/12 02:39:25;;;;;;;27.73;15.00;;;;;;;;;;5032799;28;20041;-74
2021/10/12 02:41:51;;;;;;;26.85;14.68;;;;;;;;;;5032215;28;20049;-73
2021/10/12 02:44:18;;;;;;;27.05;13.63;;;;;;;;;;5032943;28;20045;-74
2021/10/12 02:46:45;;;;;;;29.85;13.73;;;;;;;;;;5032730;28;20055;-73
2021/10/12 02:49:12;;;;;;;25.25;12.85;;;;;;;;;;5032368;28;20049;-72
2021/10/12 02:51:38;;;;;;;22.80;12.82;;;;;;;;;;5031962;28;20079;-73
2021/10/12 02:54:05;;;;;;;25.00;13.05;;;;;;;;;;5033171;28;20053;-73
2021/10/12 02:56:31;;;;;;;29.58;14.77;;;;;;;;;;5032094;28;20049;-73
2021/10/12 02:58:58;;;;;;;26.88;13.15;;;;;;;;;;5032082;28;20050;-72
2021/10/12 03:01:24;;;;;;;25.42;12.48;;;;;;;;;;5032255;28;20056;-73
2021/10/12 03:03:52;;;;;;;24.45;12.65;;;;;;;;;;5031809;28;20050;-74
2021/10/12 03:06:19;;;;;;;31.60;16.45;;;;;;;;;;5025362;28;20488;-73
2021/10/12 03:08:46;;;;;;;26.83;14.40;;;;;;;;;;5031672;28;20534;-75
2021/10/12 03:11:13;;;;;;;23.75;12.32;;;;;;;;;;5032087;28;20442;-73
2021/10/12 03:13:39;;;;;;;25.80;13.85;;;;;;;;;;5033484;28;20469;-74
2021/10/12 03:16:07;;;;;;;25.05;12.48;;;;;;;;;;5031170;28;20037;-74
2021/10/12 03:18:34;;;;;;;27.10;13.38;;;;;;;;;;5031155;28;20057;-74
2021/10/12 03:21:03;;;;;;;25.27;12.98;;;;;;;;;;5032614;28;20418;-74
2021/10/12 03:23:29;;;;;;;26.30;14.38;;;;;;;;;;5031398;28;20057;-74
2021/10/12 03:25:56;;;;;;;28.58;14.07;;;;;;;;;;5031363;28;20045;-75
2021/10/12 03:28:32;;;;;;;24.98;13.93;;;;;;;;;;5032096;28;20049;-74
2021/10/12 03:30:58;;;;;;;28.00;13.95;;;;;;;;;;5031399;28;20045;-74
2021/10/12 03:33:25;;;;;;;22.77;12.32;;;;;;;;;;5045386;22;20056;-73
2021/10/12 03:35:55;;;;;;;22.33;12.40;;;;;;;;;;5028898;28;20406;-74
2021/10/12 03:38:23;;;;;;;26.42;13.32;;;;;;;;;;5035351;28;20045;-74
2021/10/12 03:40:50;;;;;;;28.38;15.00;;;;;;;;;;5036054;28;20057;-74
2021/10/12 03:43:17;;;;;;;21.90;12.63;;;;;;;;;;5031930;28;20414;-74
2021/10/12 03:45:43;;;;;;;32.38;15.55;;;;;;;;;;5037539;28;20045;-74
2021/10/12 03:48:10;;;;;;;27.80;14.00;;;;;;;;;;5038825;28;20057;-75
2021/10/12 03:50:36;;;;;;;33.40;16.13;;;;;;;;;;5042654;28;20049;-75
2021/10/12 03:53:03;;;;;;;28.92;14.40;;;;;;;;;;5043963;28;20517;-74
2021/10/12 03:55:31;;;;;;;27.13;13.63;;;;;;;;;;5033500;28;20569;-73
2021/10/12 03:57:58;;;;;;;27.40;13.90;;;;;;;;;;5036142;28;20055;-73
2021/10/12 04:00:24;;;;;;;30.83;14.88;;;;;;;;;;5034719;28;20049;-74
2021/10/12 04:02:51;;;;;;;29.38;14.10;;;;;;;;;;5029826;28;20049;-72
2021/10/12 04:05:18;;;;;;;29.77;13.27;;;;;;;;;;5029978;28;20424;-72
2021/10/12 04:07:46;;;;;;;28.95;15.75;;;;;;;;;;5030556;28;20045;-73
2021/10/12 04:10:13;;;;;;;29.25;15.07;;;;;;;;;;5029821;28;20049;-73
2021/10/12 04:12:43;;;;;;;36.75;17.60;;;;;;;;;;5016417;28;20054;-74
2021/10/12 04:15:10;;;;;;;33.42;16.60;;;;;;;;;;5020671;28;20133;-73
2021/10/12 04:17:36;;;;;;;36.78;18.20;;;;;;;;;;5037224;28;20402;-73
2021/10/12 04:20:04;;;;;;;35.50;16.20;;;;;;;;;;5035377;28;20053;-72
2021/10/12 04:22:30;;;;;;;29.65;15.95;;;;;;;;;;5035946;28;20045;-74
2021/10/12 04:24:57;;;;;;;38.83;17.27;;;;;;;;;;5042595;28;20049;-73
2021/10/12 04:27:23;;;;;;;37.00;17.27;;;;;;;;;;5031264;28;20041;-73
2021/10/12 04:29:51;;;;;;;37.85;17.92;;;;;;;;;;5030736;28;20052;-72
2021/10/12 04:32:17;;;;;;;34.85;16.40;;;;;;;;;;5036756;28;20053;-72
2021/10/12 04:34:44;;;;;;;39.72;18.63;;;;;;;;;;5030768;28;20049;-73
2021/10/12 04:37:11;;;;;;;32.42;16.08;;;;;;;;;;5030962;28;20050;-72
2021/10/12 04:39:37;;;;;;;38.20;16.30;;;;;;;;;;5018917;28;20049;-74
2021/10/12 04:42:05;;;;;;;44.03;18.08;;;;;;;;;;5021627;28;20053;-72
2021/10/12 04:44:33;;;;;;;32.33;15.77;;;;;;;;;;5021813;28;20053;-74
2021/10/12 04:47:00;;;;;;;39.17;18.77;;;;;;;;;;5021699;28;20054;-72
2021/10/12 04:49:27;;;;;;;37.35;18.25;;;;;;;;;;5023730;28;20064;-74
2021/10/12 04:51:53;;;;;;;36.55;17.65;;;;;;;;;;5021770;28;20056;-74
2021/10/12 04:54:20;;;;;;;33.72;16.20;;;;;;;;;;5024527;28;20049;-74
2021/10/12 04:56:47;;;;;;;39.40;18.75;;;;;;;;;;5021473;28;20041;-73
2021/10/12 04:59:13;;;;;;;33.35;17.15;;;;;;;;;;5025335;28;20508;-73
2021/10/12 05:01:39;;;;;;;31.83;15.20;;;;;;;;;;5024191;28;20058;-73
2021/10/12 05:04:07;;;;;;;29.00;14.98;;;;;;;;;;5025714;28;20049;-73
2021/10/12 05:06:35;;;;;;;39.17;15.98;;;;;;;;;;5022358;28;20479;-76
2021/10/12 05:09:01;;;;;;;35.63;18.10;;;;;;;;;;5023522;28;20125;-74
2021/10/12 05:11:28;;;;;;;40.72;20.90;;;;;;;;;;5026358;28;20045;-73
2021/10/12 05:14:04;;;;;;;41.35;21.15;;;;;;;;;;5026005;28;20045;-74
2021/10/12 05:16:32;;;;;;;41.45;21.80;;;;;;;;;;5029612;28;20056;-75
2021/10/12 05:18:59;;;;;;;38.50;19.38;;;;;;;;;;5033403;28;20099;-75
2021/10/12 05:21:28;;;;;;;39.85;19.35;;;;;;;;;;5033630;28;20426;-74
2021/10/12 05:23:55;;;;;;;33.40;17.23;;;;;;;;;;5032516;28;20422;-74
2021/10/12 05:26:22;;;;;;;38.17;17.45;;;;;;;;;;5023855;28;20048;-74
2021/10/12 05:28:51;;;;;;;36.97;18.48;;;;;;;;;;5032789;28;20418;-74
2021/10/12 05:31:18;;;;;;;43.17;19.40;;;;;;;;;;5033195;28;20523;-74
2021/10/12 05:33:45;;;;;;;42.05;21.17;;;;;;;;;;5033164;28;20049;-74
2021/10/12 05:36:12;;;;;;;38.40;17.95;;;;;;;;;;5032692;28;20045;-74
2021/10/12 05:38:40;;;;;;;41.55;20.85;;;;;;;;;;5032845;28;20530;-74
2021/10/12 05:41:08;;;;;;;43.83;20.23;;;;;;;;;;5032842;28;20076;-73
2021/10/12 05:43:34;;;;;;;39.75;19.67;;;;;;;;;;5033137;28;20064;-74
2021/10/12 05:46:01;;;;;;;38.33;19.05;;;;;;;;;;5032868;28;20080;-74
2021/10/12 05:48:28;;;;;;;41.55;19.10;;;;;;;;;;5033070;28;20050;-74
2021/10/12 05:50:55;;;;;;;40.90;18.98;;;;;;;;;;5033054;28;20487;-74
2021/10/12 05:53:30;;;;;;;40.83;20.33;;;;;;;;;;5032786;28;20049;-74
2021/10/12 05:56:04;;;;;;;40.10;19.25;;;;;;;;;;5032448;28;20053;-73
2021/10/12 05:58:33;;;;;;;43.97;19.55;;;;;;;;;;5033152;28;20053;-74
2021/10/12 06:01:00;;;;;;;39.30;20.20;;;;;;;;;;5033373;28;20041;-73
2021/10/12 06:03:28;;;;;;;40.33;17.90;;;;;;;;;;5033111;28;20057;-74
2021/10/12 06:05:54;;;;;;;39.65;20.27;;;;;;;;;;5033555;28;20061;-74
2021/10/12 06:08:21;;;;;;;44.63;22.20;;;;;;;;;;5033258;28;20432;-74
2021/10/12 06:10:48;;;;;;;37.33;19.65;;;;;;;;;;5032497;28;20431;-74
2021/10/12 06:13:17;;;;;;;39.25;20.15;;;;;;;;;;5028372;28;20046;-74
2021/10/12 06:15:44;;;;;;;41.20;18.77;;;;;;;;;;5012610;28;20056;-74
2021/10/12 06:18:11;;;;;;;39.78;18.92;;;;;;;;;;5013093;28;20046;-74
2021/10/12 06:20:37;;;;;;;41.42;18.70;;;;;;;;;;5032721;28;20404;-73
2021/10/12 06:23:04;;;;;;;39.67;19.83;;;;;;;;;;5033073;28;20140;-74
2021/10/12 06:25:31;;;;;;;42.95;16.83;;;;;;;;;;5032023;28;20057;-74
2021/10/12 06:27:57;;;;;;;37.75;18.10;;;;;;;;;;5032200;28;20325;-74
2021/10/12 06:30:25;;;;;;;44.67;18.63;;;;;;;;;;5032791;28;20053;-74
2021/10/12 06:32:54;;;;;;;38.92;18.27;;;;;;;;;;5033512;28;20498;-74
2021/10/12 06:35:21;;;;;;;37.13;19.90;;;;;;;;;;5032347;28;20045;-74
2021/10/12 06:37:47;;;;;;;45.95;20.58;;;;;;;;;;5032064;28;20057;-73
2021/10/12 06:40:14;;;;;;;34.20;18.70;;;;;;;;;;5032766;28;20050;-72
2021/10/12 06:42:40;;;;;;;33.03;17.63;;;;;;;;;;5032162;28;20063;-74
2021/10/12 06:45:08;;;;;;;32.83;16.58;;;;;;;;;;5032220;28;20053;-74
2021/10/12 06:47:35;;;;;;;33.13;17.80;;;;;;;;;;5031873;28;20061;-74
2021/10/12 06:50:03;;;;;;;36.08;17.92;;;;;;;;;;5032034;28;20065;-74
2021/10/12 06:52:30;;;;;;;35.47;18.52;;;;;;;;;;5016064;28;20058;-74
2021/10/12 06:54:56;;;;;;;39.30;18.15;;;;;;;;;;5031828;28;20053;-74
2021/10/12 06:57:23;;;;;;;40.70;19.50;;;;;;;;;;5031942;28;20051;-74
2021/10/12 06:59:50;;;;;;;43.95;19.98;;;;;;;;;;5032599;28;20060;-74
2021/10/12 07:02:16;;;;;;;46.08;21.38;;;;;;;;;;5033126;28;20502;-74
2021/10/12 07:04:44;;;;;;;34.88;19.50;;;;;;;;;;5033040;28;20064;-74
2021/10/12 07:07:10;;;;;;;44.47;21.40;;;;;;;;;;5032534;28;20052;-74
2021/10/12 07:09:37;;;;;;;47.97;21.48;;;;;;;;;;5032079;28;20053;-74
2021/10/12 07:12:04;;;;;;;37.78;18.90;;;;;;;;;;5032907;28;20050;-74
2021/10/12 07:14:30;;;;;;;40.05;19.92;;;;;;;;;;5033342;28;20057;-71
2021/10/12 07:16:57;;;;;;;41.80;21.10;;;;;;;;;;5033008;28;20054;-74
2021/10/12 07:19:26;;;;;;;38.10;19.25;;;;;;;;;;5032225;28;20065;-73
2021/10/12 07:21:57;;;;;;;42.50;21.13;;;;;;;;;;5030986;28;20092;-74
2021/10/12 07:24:24;;;;;;;39.88;19.08;;;;;;;;;;5033447;28;20053;-73
2021/10/12 07:26:51;;;;;;;38.80;19.77;;;;;;;;;;5031994;28;20046;-72
2021/10/12 07:29:18;;;;;;;35.85;18.95;;;;;;;;;;5033812;28;20510;-72
2021/10/12 07:31:45;;;;;;;41.78;21.70;;;;;;;;;;5032547;28;20050;-73
2021/10/12 07:34:14;;;;;;;48.40;21.58;;;;;;;;;;5031909;28;20053;-72
2021/10/12 07:36:42;;;;;;;46.55;24.35;;;;;;;;;;5033422;28;20049;-73
2021/10/12 07:39:10;;;;;;;44.10;21.45;;;;;;;;;;5032475;28;20503;-74
2021/10/12 07:41:37;;;;;;;42.28;21.50;;;;;;;;;;5025026;28;20041;-73
2021/10/12 07:44:05;;;;;;;39.45;19.00;;;;;;;;;;5032793;23;20048;-86
2021/10/12 07:46:32;;;;;;;42.85;20.98;;;;;;;;;;5011985;28;20136;-86
2021/10/12 07:48:59;;;;;;;38.88;21.27;;;;;;;;;;5011855;28;20053;-87
2021/10/12 07:51:26;;;;;;;41.50;18.42;;;;;;;;;;5011025;28;20520;-88
2021/10/12 07:53:55;;;;;;;38.90;20.02;;;;;;;;;;5013036;28;20052;-85
2021/10/12 07:56:35;;;;;;;36.75;18.60;;;;;;;;;;5013147;28;20390;-85
2021/10/12 07:59:02;;;;;;;39.95;20.25;;;;;;;;;;5013764;28;20048;-85
2021/10/12 08:01:29;;;;;;;43.08;21.25;;;;;;;;;;4997240;28;20904;-85
2021/10/12 08:03:56;;;;;;;35.67;19.27;;;;;;;;;;5014872;28;20049;-87
2021/10/12 08:06:22;;;;;;;39.63;19.70;;;;;;;;;;5012946;28;20046;-87
2021/10/12 08:08:49;;;;;;;45.33;20.02;;;;;;;;;;4979654;28;20076;-88
2021/10/12 08:11:22;;;;;;;35.85;19.25;;;;;;;;;;5011558;28;20537;-90
2021/10/12 08:13:54;;;;;;;34.75;18.40;;;;;;;;;;5012285;28;20457;-89
2021/10/12 08:16:26;;;;;;;36.97;17.85;;;;;;;;;;5011764;28;20057;-90
2021/10/12 08:18:52;;;;;;;32.88;18.08;;;;;;;;;;4992702;28;20046;-89
2021/10/12 08:21:19;;;;;;;35.67;18.17;;;;;;;;;;5000312;28;20054;-90
2021/10/12 08:23:47;;;;;;;30.60;16.27;;;;;;;;;;5011533;28;20057;-86
2021/10/12 08:26:14;;;;;;;32.10;18.40;;;;;;;;;;5013088;28;20037;-88
2021/10/12 08:28:44;;;;;;;32.33;17.58;;;;;;;;;;4999066;28;20132;-89
2021/10/12 08:31:14;;;;;;;36.22;16.85;;;;;;;;;;5016103;28;20052;-89
2021/10/12 08:33:41;;;;;;;33.13;16.35;;;;;;;;;;5031850;28;20052;-88
2021/10/12 08:36:07;;;;;;;29.92;16.38;;;;;;;;;;5015926;28;20052;-88
2021/10/12 08:38:34;;;;;;;31.90;15.65;;;;;;;;;;4999118;28;20618;-87
2021/10/12 08:43:47;;;;;;;33.88;16.48;;;;;;;;;;5016429;28;20050;-88
2021/10/12 08:46:20;;;;;;;30.08;15.88;;;;;;;;;;5050831;28;20698;-88
2021/10/12 08:48:46;;;;;;;24.85;14.73;;;;;;;;;;5035997;28;20136;-89
2021/10/12 08:51:14;;;;;;;32.88;15.48;;;;;;;;;;5035352;28;20053;-89
2021/10/12 08:53:41;;;;;;;28.33;14.43;;;;;;;;;;5015963;28;20081;-88
2021/10/12 08:56:08;;;;;;;28.42;15.20;;;;;;;;;;5021591;28;20050;-89
2021/10/12 08:58:36;;;;;;;25.10;13.57;;;;;;;;;;4986232;28;20574;-89
2021/10/12 09:01:07;;;;;;;24.92;12.27;;;;;;;;;;4999082;28;20133;-89
2021/10/12 09:03:48;;;;;;;24.92;12.70;;;;;;;;;;4998998;28;20089;-90
2021/10/12 09:06:14;;;;;;;21.20;12.55;;;;;;;;;;5016497;28;20052;-88
2021/10/12 09:08:41;;;;;;;23.35;10.63;;;;;;;;;;4998811;28;20128;-89
2021/10/12 09:11:20;;;;;;;21.13;10.77;;;;;;;;;;5015595;28;20045;-90
2021/10/12 09:13:48;;;;;;;18.40;10.13;;;;;;;;;;4998635;28;20112;-87
2021/10/12 09:16:16;;;;;;;16.10;9.27;;;;;;;;;;5016175;28;20170;-89
2021/10/12 09:19:04;;;;;;;21.65;10.65;;;;;;;;;;5015408;28;20401;-89
2021/10/12 09:21:41;;;;;;;17.00;9.88;;;;;;;;;;4999136;28;20096;-86
2021/10/12 09:24:09;;;;;;;16.30;9.18;;;;;;;;;;5016657;28;20049;-87
2021/10/12 09:26:38;;;;;;;18.42;9.40;;;;;;;;;;5018381;28;20443;-86
2021/10/12 09:29:12;;;;;;;20.00;11.02;;;;;;;;;;5016649;28;20069;-86
2021/10/12 09:31:41;;;;;;;15.85;8.77;;;;;;;;;;5017090;28;20049;-89
2021/10/12 09:34:10;;;;;;;16.30;8.75;;;;;;;;;;5015708;28;20042;-87
2021/10/12 09:36:39;;;;;;;14.40;6.68;;;;;;;;;;5017664;28;20057;-88
2021/10/12 09:39:07;;;;;;;15.52;8.25;;;;;;;;;;4998631;28;20129;-89
2021/10/12 09:41:35;;;;;;;17.75;8.07;;;;;;;;;;5017482;28;20050;-89
2021/10/12 09:44:12;;;;;;;16.23;8.15;;;;;;;;;;5016423;28;20046;-86
2021/10/12 09:46:39;;;;;;;13.20;7.30;;;;;;;;;;5016182;28;20445;-89
2021/10/12 09:49:19;;;;;;;17.52;8.65;;;;;;;;;;5013961;28;20045;-88
2021/10/12 09:51:56;;;;;;;17.27;8.95;;;;;;;;;;5016192;28;20050;-88
2021/10/12 09:54:27;;;;;;;14.13;8.00;;;;;;;;;;5016213;28;20042;-88
2021/10/12 09:57:08;;;;;;;12.23;7.00;;;;;;;;;;5015336;28;20037;-88
2021/10/12 09:59:35;;;;;;;11.68;7.20;;;;;;;;;;5014960;28;20053;-89
2021/10/12 10:02:02;;;;;;;13.70;7.38;;;;;;;;;;5014563;28;20046;-87
2021/10/12 10:04:31;;;;;;;11.90;7.30;;;;;;;;;;5014015;28;20135;-87
2021/10/12 10:07:06;;;;;;;15.60;7.65;;;;;;;;;;5014730;28;20049;-87
2021/10/12 10:09:37;;;;;;;12.68;7.13;;;;;;;;;;5015658;28;20042;-87
2021/10/12 10:12:07;;;;;;;11.82;6.72;;;;;;;;;;5015321;28;20042;-88
2021/10/12 10:14:34;;;;;;;13.02;7.50;;;;;;;;;;5013584;28;20080;-86
2021/10/12 10:17:01;;;;;;;12.68;5.65;;;;;;;;;;5014626;28;20053;-92
2021/10/12 10:19:32;;;;;;;10.73;6.03;;;;;;;;;;5014943;28;20570;-85
2021/10/12 10:21:59;;;;;;;13.18;6.68;;;;;;;;;;5013588;28;20128;-87
2021/10/12 10:24:48;;;;;;;12.85;6.15;;;;;;;;;;5013367;28;20041;-85
2021/10/12 10:27:32;;;;;;;12.55;6.43;;;;;;;;;;5013996;28;20119;-86
2021/10/12 10:30:27;;;;;;;9.90;6.65;;;;;;;;;;5014712;28;20104;-84
2021/10/12 10:32:55;;;;;;;12.88;4.88;;;;;;;;;;5013929;28;20104;-90
2021/10/12 10:35:40;;;;;;;8.65;4.90;;;;;;;;;;5014471;28;20046;-87
2021/10/12 10:38:35;;;;;;;11.35;4.93;;;;;;;;;;5012934;28;20560;-88
2021/10/12 10:41:25;;;;;;;9.85;5.20;;;;;;;;;;5013837;28;20145;-88
2021/10/12 10:43:56;;;;;;;8.18;5.10;;;;;;;;;;5012946;28;20045;-88
2021/10/12 10:46:39;;;;;;;11.48;5.68;;;;;;;;;;5012504;28;20050;-88
2021/10/12 10:49:08;;;;;;;9.68;5.43;;;;;;;;;;5013263;28;20045;-88
2021/10/12 10:51:49;;;;;;;8.55;5.28;;;;;;;;;;5014101;28;20383;-90
2021/10/12 10:55:02;;;;;;;10.25;5.45;;;;;;;;;;5012911;28;20065;-89
2021/10/12 10:57:30;;;;;;;9.65;4.72;;;;;;;;;;5012785;28;20041;-87
2021/10/12 11:00:25;;;;;;;8.63;5.22;;;;;;;;;;4996564;28;20049;-88
2021/10/12 11:02:52;;;;;;;8.48;5.63;;;;;;;;;;4978862;28;20061;-91
2021/10/12 11:05:33;;;;;;;9.00;5.70;;;;;;;;;;5013713;28;20133;-89
2021/10/12 11:08:19;;;;;;;10.13;5.43;;;;;;;;;;5013228;28;20045;-91
2021/10/12 11:10:48;;;;;;;8.70;4.93;;;;;;;;;;5013971;28;20041;-92
2021/10/12 11:13:29;;;;;;;11.57;6.13;;;;;;;;;;5012014;28;20045;-88
2021/10/12 11:15:56;;;;;;;11.55;5.13;;;;;;;;;;5013714;28;20041;-89
2021/10/12 11:18:24;;;;;;;9.43;5.20;;;;;;;;;;5013418;28;20060;-90
2021/10/12 11:20:53;;;;;;;9.02;4.78;;;;;;;;;;5012833;28;20045;-89
2021/10/12 11:23:28;;;;;;;9.68;5.80;;;;;;;;;;5013466;28;20394;-91
2021/10/12 11:25:58;;;;;;;11.63;4.47;;;;;;;;;;5012443;28;20054;-91
2021/10/12 11:28:26;;;;;;;10.77;5.15;;;;;;;;;;5013149;28;20384;-91
2021/10/12 11:30:53;;;;;;;8.70;4.90;;;;;;;;;;5013264;28;20042;-91
2021/10/12 11:33:32;;;;;;;10.48;5.45;;;;;;;;;;5012351;28;20050;-90
2021/10/12 11:36:00;;;;;;;17.88;7.22;;;;;;;;;;5013312;28;20641;-92
2021/10/12 11:38:34;;;;;;;12.93;6.00;;;;;;;;;;5012644;28;20139;-92
2021/10/12 11:41:15;;;;;;;10.38;5.40;;;;;;;;;;5012299;28;20394;-92
2021/10/12 11:43:47;;;;;;;9.02;5.07;;;;;;;;;;5012608;28;20498;-93
2021/10/12 11:46:31;;;;;;;10.05;5.00;;;;;;;;;;5012158;28;20050;-92
2021/10/12 11:49:00;;;;;;;10.77;5.07;;;;;;;;;;5012593;28;20053;-90
2021/10/12 11:51:29;;;;;;;9.00;4.70;;;;;;;;;;5011438;28;20491;-90
2021/10/12 11:53:59;;;;;;;8.95;5.20;;;;;;;;;;5012876;28;20053;-89
2021/10/12 11:56:27;;;;;;;12.55;5.68;;;;;;;;;;5012188;28;20058;-90
2021/10/12 11:58:58;;;;;;;9.30;4.95;;;;;;;;;;5012138;28;20081;-88
2021/10/12 12:01:29;;;;;;;8.38;5.35;;;;;;;;;;5012342;28;20133;-91
2021/10/12 12:03:57;;;;;;;7.05;5.00;;;;;;;;;;5012218;28;20050;-89
2021/10/12 12:06:26;;;;;;;8.32;4.78;;;;;;;;;;5011914;28;20053;-90
2021/10/12 12:09:00;;;;;;;8.82;4.85;;;;;;;;;;5011815;28;20557;-92
2021/10/12 12:11:29;;;;;;;8.60;4.97;;;;;;;;;;5011948;28;20046;-91
2021/10/12 12:13:57;;;;;;;7.55;4.90;;;;;;;;;;5013348;28;20050;-89
2021/10/12 12:16:27;;;;;;;8.38;4.68;;;;;;;;;;5013107;28;20049;-88
2021/10/12 12:18:54;;;;;;;9.15;4.55;;;;;;;;;;5013476;28;20045;-87
2021/10/12 12:21:29;;;;;;;11.20;5.38;;;;;;;;;;5013364;28;20048;-90
2021/10/12 12:23:57;;;;;;;10.38;4.97;;;;;;;;;;5013010;28;20057;-89
2021/10/12 12:26:27;;;;;;;7.93;4.45;;;;;;;;;;5012436;28;20046;-93
2021/10/12 12:28:54;;;;;;;7.97;4.40;;;;;;;;;;5011597;28;20038;-89
2021/10/12 12:31:22;;;;;;;7.38;4.47;;;;;;;;;;5013831;28;20046;-89
2021/10/12 12:33:50;;;;;;;8.90;5.22;;;;;;;;;;5011207;28;20120;-89
2021/10/12 12:36:17;;;;;;;12.75;4.78;;;;;;;;;;5013770;28;20395;-91
2021/10/12 12:38:44;;;;;;;7.60;4.53;;;;;;;;;;5012201;28;20042;-91
2021/10/12 12:41:21;;;;;;;6.50;4.03;;;;;;;;;;5013122;28;20053;-91
2021/10/12 12:43:54;;;;;;;7.65;4.55;;;;;;;;;;5011998;28;20092;-88
2021/10/12 12:46:22;;;;;;;5.60;3.25;;;;;;;;;;5013354;28;20076;-91
2021/10/12 12:49:07;;;;;;;6.95;3.38;;;;;;;;;;5014300;28;20073;-90
2021/10/12 12:51:35;;;;;;;8.63;3.70;;;;;;;;;;5013483;28;20057;-89
2021/10/12 12:54:01;;;;;;;11.55;3.70;;;;;;;;;;5013473;28;20052;-92
2021/10/12 12:56:33;;;;;;;5.78;3.50;;;;;;;;;;4994658;28;20478;-90
2021/10/12 12:59:09;;;;;;;10.00;3.55;;;;;;;;;;5010935;28;20101;-87
2021/10/12 13:01:37;;;;;;;6.10;2.97;;;;;;;;;;5011601;28;20141;-91
2021/10/12 13:04:05;;;;;;;7.07;2.97;;;;;;;;;;5012493;28;20056;-91
2021/10/12 13:06:31;;;;;;;6.30;3.58;;;;;;;;;;5012651;28;20524;-93
2021/10/12 13:09:00;;;;;;;4.68;2.80;;;;;;;;;;5012558;28;20048;-91
2021/10/12 13:11:30;;;;;;;5.72;2.90;;;;;;;;;;5012100;28;20135;-92
2021/10/12 13:13:57;;;;;;;5.18;3.50;;;;;;;;;;5013899;28;20398;-92
2021/10/12 13:16:25;;;;;;;6.63;3.55;;;;;;;;;;5017002;28;20375;-91
2021/10/12 13:18:52;;;;;;;8.68;4.10;;;;;;;;;;5015135;28;20387;-88
2021/10/12 13:21:19;;;;;;;6.00;3.70;;;;;;;;;;5016483;28;20129;-91
2021/10/12 13:23:46;;;;;;;8.10;3.50;;;;;;;;;;5014528;28;20081;-90
2021/10/12 13:26:13;;;;;;;6.20;3.78;;;;;;;;;;5014340;28;20100;-91
2021/10/12 13:28:39;;;;;;;9.15;4.78;;;;;;;;;;5014966;28;20048;-89
2021/10/12 13:31:07;;;;;;;10.18;3.83;;;;;;;;;;5014528;28;20053;-90
2021/10/12 13:33:35;;;;;;;7.93;5.20;;;;;;;;;;5014937;28;20136;-90
2021/10/12 13:36:02;;;;;;;9.60;4.38;;;;;;;;;;5015652;28;20049;-91
2021/10/12 13:38:29;;;;;;;6.28;3.50;;;;;;;;;;4998288;28;20052;-91
2021/10/12 13:40:56;;;;;;;8.45;3.50;;;;;;;;;;5014472;28;20061;-92
2021/10/12 13:43:23;;;;;;;11.15;4.25;;;;;;;;;;5015373;28;20088;-89
2021/10/12 13:45:50;;;;;;;9.05;4.20;;;;;;;;;;5015212;28;20045;-91
2021/10/12 13:48:17;;;;;;;8.27;4.75;;;;;;;;;;4999101;28;20052;-93
2021/10/12 13:50:45;;;;;;;6.72;4.38;;;;;;;;;;5015129;28;20046;-89
2021/10/12 13:53:12;;;;;;;6.50;3.63;;;;;;;;;;5014329;28;20049;-90
2021/10/12 13:55:39;;;;;;;6.55;3.20;;;;;;;;;;5014715;28;20104;-91
2021/10/12 13:58:06;;;;;;;6.80;3.70;;;;;;;;;;4994806;28;20089;-90
2021/10/12 14:00:34;;;;;;;8.27;4.00;;;;;;;;;;5010452;28;20046;-90
2021/10/12 14:03:02;;;;;;;9.23;4.18;;;;;;;;;;4994544;28;20050;-89
2021/10/12 14:05:32;;;;;;;9.02;4.53;;;;;;;;;;5003803;28;20038;-91
2021/10/12 14:08:01;;;;;;;7.07;4.00;;;;;;;;;;5014126;28;20046;-89
2021/10/12 14:10:31;;;;;;;5.32;3.00;;;;;;;;;;5014630;28;20112;-89
2021/10/12 14:12:58;;;;;;;5.50;2.80;;;;;;;;;;5014134;28;20053;-89
2021/10/12 14:15:24;;;;;;;11.15;3.10;;;;;;;;;;5013945;28;20113;-92
2021/10/12 14:17:51;;;;;;;6.88;3.10;;;;;;;;;;5013828;28;20081;-90
2021/10/12 14:20:18;;;;;;;5.60;3.00;;;;;;;;;;5013914;28;20042;-89
2021/10/12 14:22:46;;;;;;;5.35;2.55;;;;;;;;;;4997997;28;20050;-90
2021/10/12 14:25:14;;;;;;;6.47;3.03;;;;;;;;;;5013928;28;20046;-85
2021/10/12 14:27:44;;;;;;;8.00;3.58;;;;;;;;;;5013580;28;20054;-88
2021/10/12 14:30:12;;;;;;;6.15;3.15;;;;;;;;;;4997720;28;20045;-88
2021/10/12 14:32:38;;;;;;;10.88;3.60;;;;;;;;;;5028569;28;20053;-90
2021/10/12 14:35:06;;;;;;;10.85;4.20;;;;;;;;;;5013277;28;20140;-88